createdAt,value
2023-08-15T00:00:49.639Z,0
2023-08-15T00:01:58.804Z,0
2023-08-15T00:03:07.984Z,0
2023-08-15T00:04:17.152Z,0
2023-08-15T00:05:26.334Z,0
2023-08-15T00:06:35.508Z,0
2023-08-15T00:07:44.648Z,0
2023-08-15T00:08:52.852Z,0
2023-08-15T00:10:02.059Z,0
2023-08-15T00:11:11.204Z,0
2023-08-15T00:12:20.381Z,0
2023-08-15T00:13:29.540Z,0
2023-08-15T00:14:38.715Z,0
2023-08-15T00:15:47.899Z,0
2023-08-15T00:16:57.082Z,0
2023-08-15T00:18:06.237Z,0
2023-08-15T00:19:15.409Z,0
2023-08-15T00:20:24.580Z,0
2023-08-15T00:21:33.751Z,0
2023-08-15T00:23:52.093Z,0
2023-08-15T00:25:00.283Z,0
2023-08-15T00:26:09.461Z,0
2023-08-15T00:27:18.627Z,0
2023-08-15T00:28:27.808Z,0
2023-08-15T00:29:36.966Z,0
2023-08-15T00:30:46.154Z,0
2023-08-15T00:31:55.328Z,0
2023-08-15T00:33:04.489Z,0
2023-08-15T00:34:13.667Z,0
2023-08-15T00:35:22.838Z,0
2023-08-15T00:36:32.015Z,0
2023-08-15T00:37:41.182Z,0
2023-08-15T00:38:50.354Z,0
2023-08-15T00:39:58.552Z,0
2023-08-15T00:41:07.714Z,0
2023-08-15T00:42:16.888Z,0
2023-08-15T00:43:26.067Z,0
2023-08-15T00:44:35.230Z,0
2023-08-15T00:45:44.404Z,0
2023-08-15T00:46:53.568Z,0
2023-08-15T00:48:02.741Z,0
2023-08-15T00:49:11.924Z,0
2023-08-15T00:50:21.107Z,0
2023-08-15T00:51:30.261Z,0
2023-08-15T00:52:39.426Z,0
2023-08-15T00:53:48.608Z,0
2023-08-15T00:54:56.802Z,0
2023-08-15T00:56:05.976Z,0
2023-08-15T00:57:15.143Z,0
2023-08-15T00:58:24.310Z,0
2023-08-15T01:00:42.670Z,0
2023-08-15T01:01:51.834Z,0
2023-08-15T01:04:10.179Z,0
2023-08-15T01:05:19.348Z,0
2023-08-15T01:06:28.524Z,0
2023-08-15T01:07:37.691Z,0
2023-08-15T01:08:46.870Z,0
2023-08-15T01:09:55.062Z,0
2023-08-15T01:11:03.252Z,0
2023-08-15T01:12:12.428Z,0
2023-08-15T01:13:21.598Z,0
2023-08-15T01:14:30.766Z,0
2023-08-15T01:15:39.929Z,0
2023-08-15T01:16:49.117Z,0
2023-08-15T01:17:58.288Z,0
2023-08-15T01:19:07.480Z,0
2023-08-15T01:20:16.611Z,0
2023-08-15T01:22:34.970Z,0
2023-08-15T01:23:44.128Z,0
2023-08-15T01:26:02.488Z,0
2023-08-15T01:27:10.704Z,0
2023-08-15T01:29:28.049Z,0
2023-08-15T01:30:37.215Z,0
2023-08-15T01:31:46.392Z,0
2023-08-15T01:32:55.555Z,0
2023-08-15T01:34:04.728Z,0
2023-08-15T01:35:13.902Z,0
2023-08-15T01:36:23.066Z,0
2023-08-15T01:37:32.270Z,0
2023-08-15T01:38:41.416Z,0
2023-08-15T01:39:50.605Z,0
2023-08-15T01:40:59.761Z,0
2023-08-15T01:42:08.942Z,0
2023-08-15T01:43:17.135Z,0
2023-08-15T01:44:26.298Z,0
2023-08-15T01:45:35.541Z,0
2023-08-15T01:46:44.645Z,0
2023-08-15T01:47:53.811Z,0
2023-08-15T01:49:03.022Z,0
2023-08-15T01:50:12.172Z,0
2023-08-15T01:51:20.350Z,0
2023-08-15T01:52:29.519Z,0
2023-08-15T01:53:37.725Z,0
2023-08-15T01:54:45.920Z,0
2023-08-15T01:55:55.084Z,0
2023-08-15T01:57:04.233Z,0
2023-08-15T01:58:13.424Z,0
2023-08-15T01:59:22.598Z,0
2023-08-15T02:00:31.767Z,0
2023-08-15T02:01:40.935Z,0
2023-08-15T02:02:50.124Z,0
2023-08-15T02:03:58.320Z,0
2023-08-15T02:06:16.649Z,0
2023-08-15T02:07:25.814Z,0
2023-08-15T02:08:35.073Z,0
2023-08-15T02:09:44.174Z,0
2023-08-15T02:10:53.349Z,0
2023-08-15T02:12:02.528Z,0
2023-08-15T02:13:11.682Z,0
2023-08-15T02:14:20.864Z,0
2023-08-15T02:15:30.033Z,0
2023-08-15T02:16:39.209Z,0
2023-08-15T02:17:47.405Z,0
2023-08-15T02:18:55.572Z,0
2023-08-15T02:20:04.762Z,0
2023-08-15T02:21:13.924Z,0
2023-08-15T02:22:23.101Z,0
2023-08-15T02:23:32.272Z,0
2023-08-15T02:24:41.454Z,0
2023-08-15T02:25:50.618Z,0
2023-08-15T02:26:59.799Z,0
2023-08-15T02:28:08.966Z,0
2023-08-15T02:30:27.317Z,0
2023-08-15T02:31:36.477Z,0
2023-08-15T02:32:45.645Z,0
2023-08-15T02:33:53.855Z,0
2023-08-15T02:35:03.027Z,0
2023-08-15T02:37:21.366Z,0
2023-08-15T02:38:29.560Z,0
2023-08-15T02:39:37.740Z,0
2023-08-15T02:40:46.971Z,0
2023-08-15T02:41:56.075Z,0
2023-08-15T02:43:05.262Z,0
2023-08-15T02:44:14.442Z,0
2023-08-15T02:45:23.606Z,0
2023-08-15T02:46:32.778Z,0
2023-08-15T02:47:41.948Z,0
2023-08-15T02:48:51.121Z,0
2023-08-15T02:49:59.319Z,0
2023-08-15T02:52:16.675Z,0
2023-08-15T02:53:25.855Z,0
2023-08-15T02:55:44.191Z,0
2023-08-15T02:56:53.363Z,0
2023-08-15T02:58:02.546Z,0
2023-08-15T02:59:11.710Z,0
2023-08-15T03:00:20.890Z,0
2023-08-15T03:01:30.052Z,0
2023-08-15T03:02:39.225Z,0
2023-08-15T03:03:47.432Z,0
2023-08-15T03:04:55.615Z,0
2023-08-15T03:06:04.781Z,0
2023-08-15T03:07:13.936Z,0
2023-08-15T03:08:23.130Z,0
2023-08-15T03:09:32.310Z,0
2023-08-15T03:10:41.478Z,0
2023-08-15T03:11:50.644Z,0
2023-08-15T03:12:59.828Z,0
2023-08-15T03:14:08.991Z,0
2023-08-15T03:15:17.196Z,0
2023-08-15T03:16:25.361Z,0
2023-08-15T03:17:34.550Z,0
2023-08-15T03:18:43.709Z,0
2023-08-15T03:19:52.895Z,0
2023-08-15T03:21:02.059Z,0
2023-08-15T03:22:11.240Z,0
2023-08-15T03:23:20.402Z,0
2023-08-15T03:24:29.582Z,0
2023-08-15T03:25:38.746Z,0
2023-08-15T03:26:47.924Z,0
2023-08-15T03:27:57.092Z,0
2023-08-15T03:29:06.260Z,0
2023-08-15T03:30:15.466Z,0
2023-08-15T03:31:23.623Z,0
2023-08-15T03:32:32.803Z,0
2023-08-15T03:33:41.966Z,0
2023-08-15T03:34:51.132Z,0
2023-08-15T03:36:00.317Z,0
2023-08-15T03:37:09.479Z,0
2023-08-15T03:38:18.661Z,0
2023-08-15T03:39:27.842Z,0
2023-08-15T03:40:37.006Z,0
2023-08-15T03:41:46.172Z,0
2023-08-15T03:42:55.343Z,0
2023-08-15T03:44:04.537Z,0
2023-08-15T03:45:13.708Z,0
2023-08-15T03:46:21.884Z,0
2023-08-15T03:47:31.064Z,0
2023-08-15T03:48:40.224Z,0
2023-08-15T03:49:49.398Z,0
2023-08-15T03:50:58.567Z,0
2023-08-15T03:52:07.752Z,0
2023-08-15T03:53:16.921Z,0
2023-08-15T03:54:26.091Z,0
2023-08-15T03:55:35.263Z,0
2023-08-15T03:56:44.433Z,0
2023-08-15T03:57:53.604Z,0
2023-08-15T03:59:02.784Z,0
2023-08-15T04:00:11.943Z,0
2023-08-15T04:01:20.141Z,0
2023-08-15T04:02:28.345Z,0
2023-08-15T04:03:36.509Z,0
2023-08-15T04:04:45.702Z,0
2023-08-15T04:05:54.865Z,0
2023-08-15T04:07:04.025Z,0
2023-08-15T04:08:13.223Z,0
2023-08-15T04:09:22.379Z,0
2023-08-15T04:10:31.550Z,0
2023-08-15T04:11:40.740Z,0
2023-08-15T04:12:49.906Z,0
2023-08-15T04:13:59.070Z,0
2023-08-15T04:15:08.248Z,0
2023-08-15T04:16:17.415Z,0
2023-08-15T04:17:26.593Z,0
2023-08-15T04:18:34.779Z,0
2023-08-15T04:19:43.951Z,0
2023-08-15T04:20:53.132Z,0
2023-08-15T04:22:02.297Z,0
2023-08-15T04:23:11.468Z,0
2023-08-15T04:24:20.639Z,0
2023-08-15T04:25:28.832Z,0
2023-08-15T04:26:37.027Z,0
2023-08-15T04:27:46.194Z,0
2023-08-15T04:28:55.367Z,0
2023-08-15T04:30:04.536Z,0
2023-08-15T04:31:13.719Z,0
2023-08-15T04:32:22.882Z,0
2023-08-15T04:33:32.058Z,0
2023-08-15T04:34:41.229Z,0
2023-08-15T04:35:50.408Z,0
2023-08-15T04:36:59.570Z,0
2023-08-15T04:38:08.764Z,0
2023-08-15T04:39:17.932Z,0
2023-08-15T04:40:27.169Z,0
2023-08-15T04:41:35.274Z,0
2023-08-15T04:42:44.456Z,0
2023-08-15T04:43:53.624Z,0
2023-08-15T04:45:02.798Z,0
2023-08-15T04:46:11.968Z,0
2023-08-15T04:47:21.140Z,0
2023-08-15T04:48:29.329Z,0
2023-08-15T04:49:37.538Z,0
2023-08-15T04:50:46.752Z,0
2023-08-15T04:51:55.882Z,0
2023-08-15T04:53:05.039Z,0
2023-08-15T04:54:14.210Z,0
2023-08-15T04:55:23.390Z,0
2023-08-15T04:56:32.555Z,0
2023-08-15T04:57:41.728Z,0
2023-08-15T04:58:51.006Z,0
2023-08-15T05:00:00.073Z,0
2023-08-15T05:01:09.239Z,0
2023-08-15T05:02:18.408Z,0
2023-08-15T05:03:27.596Z,0
2023-08-15T05:04:35.785Z,0
2023-08-15T05:05:44.961Z,0
2023-08-15T05:06:54.118Z,0
2023-08-15T05:08:03.300Z,0
2023-08-15T05:09:12.456Z,0
2023-08-15T05:10:21.651Z,0
2023-08-15T05:11:29.842Z,0
2023-08-15T05:12:38.036Z,0
2023-08-15T05:13:46.230Z,5
2023-08-15T05:14:54.417Z,5
2023-08-15T05:16:03.595Z,5
2023-08-15T05:17:12.757Z,5
2023-08-15T05:18:21.941Z,5
2023-08-15T05:19:31.153Z,5
2023-08-15T05:20:40.279Z,11
2023-08-15T05:21:49.459Z,11
2023-08-15T05:22:58.626Z,11
2023-08-15T05:24:07.802Z,16
2023-08-15T05:25:16.977Z,16
2023-08-15T05:26:26.144Z,22
2023-08-15T05:27:35.310Z,28
2023-08-15T05:28:44.491Z,28
2023-08-15T05:29:52.681Z,33
2023-08-15T05:31:01.840Z,33
2023-08-15T05:32:11.020Z,33
2023-08-15T05:33:20.185Z,33
2023-08-15T05:34:29.365Z,28
2023-08-15T05:35:38.541Z,33
2023-08-15T05:36:47.712Z,33
2023-08-15T05:37:56.924Z,39
2023-08-15T05:39:06.061Z,50
2023-08-15T05:40:15.230Z,56
2023-08-15T05:41:24.403Z,56
2023-08-15T05:42:33.570Z,56
2023-08-15T05:43:42.748Z,56
2023-08-15T05:44:50.925Z,56
2023-08-15T05:46:00.152Z,56
2023-08-15T05:47:09.393Z,61
2023-08-15T05:48:18.448Z,61
2023-08-15T05:49:27.622Z,61
2023-08-15T05:50:36.786Z,61
2023-08-15T05:52:55.219Z,61
2023-08-15T05:54:04.317Z,56
2023-08-15T05:55:12.551Z,56
2023-08-15T05:56:21.678Z,56
2023-08-15T05:57:30.836Z,56
2023-08-15T05:58:40.020Z,56
2023-08-15T05:59:48.225Z,56
2023-08-15T06:00:56.413Z,56
2023-08-15T06:02:04.596Z,56
2023-08-15T06:03:13.772Z,56
2023-08-15T06:04:22.939Z,56
2023-08-15T06:05:32.113Z,56
2023-08-15T06:06:41.283Z,56
2023-08-15T06:08:59.628Z,56
2023-08-15T06:10:08.792Z,56
2023-08-15T06:11:17.984Z,56
2023-08-15T06:12:27.218Z,56
2023-08-15T06:13:36.387Z,56
2023-08-15T06:14:45.486Z,56
2023-08-15T06:15:54.662Z,50
2023-08-15T06:17:02.846Z,56
2023-08-15T06:18:12.032Z,56
2023-08-15T06:19:21.194Z,56
2023-08-15T06:20:30.375Z,56
2023-08-15T06:21:39.537Z,56
2023-08-15T06:22:48.890Z,61
2023-08-15T06:23:57.926Z,61
2023-08-15T06:25:06.076Z,61
2023-08-15T06:26:14.318Z,61
2023-08-15T06:27:23.439Z,67
2023-08-15T06:28:32.611Z,67
2023-08-15T06:29:41.783Z,67
2023-08-15T06:30:50.969Z,67
2023-08-15T06:32:00.138Z,67
2023-08-15T06:33:09.316Z,67
2023-08-15T06:34:18.505Z,67
2023-08-15T06:35:27.644Z,67
2023-08-15T06:36:36.822Z,73
2023-08-15T06:37:46.004Z,73
2023-08-15T06:38:55.166Z,78
2023-08-15T06:40:04.329Z,78
2023-08-15T06:42:21.714Z,78
2023-08-15T06:43:30.872Z,84
2023-08-15T06:44:40.050Z,84
2023-08-15T06:45:49.224Z,84
2023-08-15T06:46:58.381Z,78
2023-08-15T06:48:07.578Z,78
2023-08-15T06:49:15.758Z,78
2023-08-15T06:50:23.955Z,84
2023-08-15T06:51:32.170Z,84
2023-08-15T06:52:41.306Z,84
2023-08-15T06:53:50.485Z,84
2023-08-15T06:54:59.650Z,84
2023-08-15T06:56:08.823Z,84
2023-08-15T06:57:18.005Z,84
2023-08-15T06:58:27.169Z,90
2023-08-15T07:00:45.522Z,95
2023-08-15T07:01:54.689Z,106
2023-08-15T07:03:03.905Z,112
2023-08-15T07:04:13.041Z,118
2023-08-15T07:05:22.205Z,157
2023-08-15T07:06:31.383Z,157
2023-08-15T07:07:40.581Z,157
2023-08-15T07:08:48.747Z,123
2023-08-15T07:09:58.049Z,157
2023-08-15T07:11:07.290Z,112
2023-08-15T07:12:16.462Z,95
2023-08-15T07:13:25.486Z,95
2023-08-15T07:14:33.674Z,101
2023-08-15T07:15:42.037Z,106
2023-08-15T07:16:50.979Z,146
2023-08-15T07:18:00.437Z,140
2023-08-15T07:19:09.355Z,118
2023-08-15T07:20:18.730Z,163
2023-08-15T07:21:27.955Z,163
2023-08-15T07:22:37.266Z,196
2023-08-15T07:23:46.423Z,191
2023-08-15T07:24:55.427Z,191
2023-08-15T07:26:04.597Z,202
2023-08-15T07:27:13.667Z,202
2023-08-15T07:28:23.157Z,168
2023-08-15T07:29:32.231Z,264
2023-08-15T07:30:40.211Z,236
2023-08-15T07:31:49.576Z,270
2023-08-15T07:32:58.727Z,258
2023-08-15T07:34:07.871Z,191
2023-08-15T07:35:16.758Z,191
2023-08-15T07:36:26.225Z,202
2023-08-15T07:37:34.421Z,196
2023-08-15T07:38:42.694Z,191
2023-08-15T07:39:51.764Z,185
2023-08-15T07:41:00.929Z,174
2023-08-15T07:42:10.091Z,163
2023-08-15T07:43:18.364Z,151
2023-08-15T07:44:27.203Z,174
2023-08-15T07:45:36.380Z,264
2023-08-15T07:46:45.569Z,185
2023-08-15T07:47:55.036Z,219
2023-08-15T07:49:04.177Z,213
2023-08-15T07:50:13.220Z,213
2023-08-15T07:51:22.595Z,202
2023-08-15T07:52:31.404Z,180
2023-08-15T07:53:40.933Z,157
2023-08-15T07:54:49.949Z,146
2023-08-15T07:55:59.188Z,208
2023-08-15T07:57:08.495Z,236
2023-08-15T07:58:17.697Z,225
2023-08-15T07:59:25.717Z,202
2023-08-15T08:00:34.972Z,213
2023-08-15T08:01:42.826Z,191
2023-08-15T08:02:52.310Z,219
2023-08-15T08:04:00.497Z,213
2023-08-15T08:05:09.427Z,157
2023-08-15T08:06:18.846Z,163
2023-08-15T08:07:27.873Z,157
2023-08-15T08:08:37.131Z,140
2023-08-15T08:09:46.318Z,135
2023-08-15T08:10:55.296Z,129
2023-08-15T08:12:04.753Z,135
2023-08-15T08:13:13.578Z,140
2023-08-15T08:14:22.989Z,135
2023-08-15T08:15:31.906Z,163
2023-08-15T08:16:41.440Z,146
2023-08-15T08:17:50.477Z,208
2023-08-15T08:18:58.728Z,213
2023-08-15T08:20:07.861Z,135
2023-08-15T08:21:17.071Z,168
2023-08-15T08:22:25.963Z,236
2023-08-15T08:23:35.345Z,225
2023-08-15T08:24:44.596Z,196
2023-08-15T08:25:52.917Z,236
2023-08-15T08:27:00.909Z,270
2023-08-15T08:28:09.063Z,281
2023-08-15T08:29:18.062Z,225
2023-08-15T08:30:27.316Z,219
2023-08-15T08:31:36.606Z,292
2023-08-15T08:32:45.745Z,225
2023-08-15T08:33:54.731Z,241
2023-08-15T08:35:04.032Z,225
2023-08-15T08:36:13.257Z,247
2023-08-15T08:37:22.249Z,219
2023-08-15T08:38:31.733Z,230
2023-08-15T08:39:40.853Z,258
2023-08-15T08:40:49.771Z,264
2023-08-15T08:41:58.959Z,275
2023-08-15T08:43:07.197Z,286
2023-08-15T08:44:16.411Z,270
2023-08-15T08:45:25.496Z,241
2023-08-15T08:46:34.653Z,219
2023-08-15T08:47:43.933Z,180
2023-08-15T08:48:53.149Z,151
2023-08-15T08:50:01.470Z,140
2023-08-15T08:51:10.627Z,146
2023-08-15T08:52:18.786Z,163
2023-08-15T08:53:28.083Z,180
2023-08-15T08:54:36.893Z,241
2023-08-15T08:55:46.072Z,180
2023-08-15T08:56:55.252Z,191
2023-08-15T08:58:04.404Z,202
2023-08-15T08:59:13.586Z,258
2023-08-15T09:00:22.759Z,247
2023-08-15T09:01:31.932Z,309
2023-08-15T09:03:50.335Z,303
2023-08-15T09:04:59.446Z,281
2023-08-15T09:06:08.652Z,275
2023-08-15T09:07:16.907Z,275
2023-08-15T09:08:25.981Z,247
2023-08-15T09:09:35.223Z,270
2023-08-15T09:10:44.470Z,264
2023-08-15T09:11:53.733Z,264
2023-08-15T09:13:02.900Z,270
2023-08-15T09:14:11.940Z,264
2023-08-15T09:15:20.343Z,264
2023-08-15T09:16:28.372Z,264
2023-08-15T09:17:37.613Z,264
2023-08-15T09:18:46.776Z,270
2023-08-15T09:19:55.876Z,270
2023-08-15T09:21:04.935Z,270
2023-08-15T09:22:14.405Z,270
2023-08-15T09:23:23.604Z,270
2023-08-15T09:24:32.572Z,270
2023-08-15T09:25:41.952Z,270
2023-08-15T09:26:50.936Z,270
2023-08-15T09:28:00.043Z,270
2023-08-15T09:29:09.146Z,270
2023-08-15T09:30:18.604Z,270
2023-08-15T09:31:26.756Z,275
2023-08-15T09:32:35.796Z,270
2023-08-15T09:34:54.012Z,270
2023-08-15T09:36:03.551Z,275
2023-08-15T09:37:12.483Z,275
2023-08-15T09:38:21.824Z,281
2023-08-15T09:40:40.136Z,281
2023-08-15T09:41:49.392Z,281
2023-08-15T09:42:58.402Z,281
2023-08-15T09:44:07.390Z,281
2023-08-15T09:45:16.923Z,275
2023-08-15T09:46:25.050Z,275
2023-08-15T09:47:33.929Z,275
2023-08-15T09:48:43.104Z,275
2023-08-15T09:49:52.512Z,281
2023-08-15T09:51:01.722Z,281
2023-08-15T09:52:10.853Z,264
2023-08-15T09:53:20.189Z,281
2023-08-15T09:54:29.164Z,286
2023-08-15T09:55:38.361Z,292
2023-08-15T09:56:47.568Z,292
2023-08-15T09:57:56.794Z,298
2023-08-15T09:59:05.744Z,292
2023-08-15T10:00:15.104Z,286
2023-08-15T10:01:23.273Z,298
2023-08-15T10:02:32.202Z,298
2023-08-15T10:03:41.657Z,303
2023-08-15T10:04:50.661Z,292
2023-08-15T10:06:00.011Z,281
2023-08-15T10:07:08.876Z,281
2023-08-15T10:08:18.439Z,286
2023-08-15T10:09:27.445Z,258
2023-08-15T10:10:36.407Z,264
2023-08-15T10:11:45.681Z,281
2023-08-15T10:14:04.241Z,298
2023-08-15T10:15:13.239Z,298
2023-08-15T10:16:21.589Z,303
2023-08-15T10:17:30.618Z,286
2023-08-15T10:18:39.627Z,309
2023-08-15T10:19:48.935Z,286
2023-08-15T10:20:58.341Z,309
2023-08-15T10:22:07.316Z,331
2023-08-15T10:23:16.533Z,360
2023-08-15T10:24:25.819Z,354
2023-08-15T10:25:34.844Z,348
2023-08-15T10:26:44.049Z,348
2023-08-15T10:27:53.082Z,348
2023-08-15T10:29:02.273Z,354
2023-08-15T10:30:11.603Z,388
2023-08-15T10:31:19.587Z,433
2023-08-15T10:32:28.823Z,450
2023-08-15T10:33:37.887Z,461
2023-08-15T10:34:47.097Z,466
2023-08-15T10:35:56.388Z,433
2023-08-15T10:38:14.571Z,382
2023-08-15T10:39:23.738Z,393
2023-08-15T10:40:32.952Z,427
2023-08-15T10:41:42.296Z,450
2023-08-15T10:42:51.366Z,455
2023-08-15T10:44:00.613Z,438
2023-08-15T10:45:09.605Z,163
2023-08-15T10:46:18.892Z,478
2023-08-15T10:47:27.170Z,478
2023-08-15T10:48:35.355Z,438
2023-08-15T10:49:43.517Z,438
2023-08-15T10:50:52.531Z,450
2023-08-15T10:52:01.760Z,180
2023-08-15T10:53:10.903Z,180
2023-08-15T10:54:20.319Z,185
2023-08-15T10:55:29.488Z,438
2023-08-15T10:56:38.735Z,376
2023-08-15T10:57:47.569Z,382
2023-08-15T10:58:56.851Z,382
2023-08-15T11:00:05.906Z,337
2023-08-15T11:01:15.411Z,315
2023-08-15T11:02:24.586Z,399
2023-08-15T11:03:33.607Z,399
2023-08-15T11:04:41.717Z,472
2023-08-15T11:05:50.933Z,466
2023-08-15T11:06:59.965Z,455
2023-08-15T11:08:09.454Z,466
2023-08-15T11:09:18.417Z,472
2023-08-15T11:10:27.681Z,461
2023-08-15T11:11:37.041Z,421
2023-08-15T11:12:46.090Z,360
2023-08-15T11:13:55.158Z,444
2023-08-15T11:15:04.320Z,495
2023-08-15T11:16:13.470Z,399
2023-08-15T11:17:22.706Z,371
2023-08-15T11:18:31.865Z,405
2023-08-15T11:19:40.344Z,360
2023-08-15T11:20:48.462Z,410
2023-08-15T11:21:56.488Z,405
2023-08-15T11:23:05.510Z,466
2023-08-15T11:24:13.758Z,472
2023-08-15T11:26:32.248Z,292
2023-08-15T11:27:41.256Z,292
2023-08-15T11:28:50.736Z,399
2023-08-15T11:29:59.814Z,360
2023-08-15T11:31:08.692Z,236
2023-08-15T11:32:18.097Z,253
2023-08-15T11:33:27.249Z,275
2023-08-15T11:34:36.504Z,427
2023-08-15T11:36:54.753Z,292
2023-08-15T11:38:02.815Z,292
2023-08-15T11:39:11.159Z,309
2023-08-15T11:40:20.288Z,382
2023-08-15T11:41:29.468Z,410
2023-08-15T11:42:38.621Z,365
2023-08-15T11:43:47.722Z,320
2023-08-15T11:44:57.088Z,433
2023-08-15T11:46:05.941Z,303
2023-08-15T11:47:15.338Z,303
2023-08-15T11:49:33.743Z,354
2023-08-15T11:50:42.626Z,292
2023-08-15T11:53:01.276Z,292
2023-08-15T11:54:10.184Z,309
2023-08-15T11:55:18.471Z,331
2023-08-15T11:56:26.576Z,382
2023-08-15T11:57:36.182Z,405
2023-08-15T11:58:45.000Z,433
2023-08-15T11:59:54.223Z,444
2023-08-15T12:01:03.399Z,421
2023-08-15T12:02:12.739Z,433
2023-08-15T12:03:21.770Z,461
2023-08-15T12:04:31.151Z,483
2023-08-15T12:05:40.341Z,511
2023-08-15T12:06:48.152Z,410
2023-08-15T12:07:56.482Z,416
2023-08-15T12:09:05.691Z,444
2023-08-15T12:10:14.662Z,433
2023-08-15T12:11:23.935Z,523
2023-08-15T12:12:33.231Z,455
2023-08-15T12:13:42.240Z,427
2023-08-15T12:16:00.517Z,421
2023-08-15T12:17:09.688Z,489
2023-08-15T12:18:18.880Z,461
2023-08-15T12:19:28.231Z,421
2023-08-15T12:21:46.696Z,455
2023-08-15T12:22:54.686Z,416
2023-08-15T12:24:04.055Z,421
2023-08-15T12:25:11.961Z,433
2023-08-15T12:26:21.218Z,438
2023-08-15T12:27:30.439Z,405
2023-08-15T12:28:39.721Z,399
2023-08-15T12:29:48.698Z,427
2023-08-15T12:30:57.959Z,376
2023-08-15T12:32:07.033Z,495
2023-08-15T12:33:16.402Z,506
2023-08-15T12:34:24.347Z,399
2023-08-15T12:35:32.639Z,343
2023-08-15T12:36:41.818Z,337
2023-08-15T12:37:51.084Z,320
2023-08-15T12:39:00.458Z,343
2023-08-15T12:40:09.215Z,376
2023-08-15T12:41:18.546Z,388
2023-08-15T12:42:27.876Z,382
2023-08-15T12:43:37.059Z,360
2023-08-15T12:44:46.146Z,371
2023-08-15T12:45:54.131Z,376
2023-08-15T12:47:02.411Z,399
2023-08-15T12:48:11.739Z,495
2023-08-15T12:49:20.933Z,360
2023-08-15T12:51:39.351Z,365
2023-08-15T12:52:48.296Z,393
2023-08-15T12:53:57.576Z,506
2023-08-15T12:55:06.712Z,433
2023-08-15T12:56:15.933Z,444
2023-08-15T12:57:24.970Z,438
2023-08-15T12:58:34.138Z,450
2023-08-15T12:59:43.271Z,354
2023-08-15T13:00:52.412Z,354
2023-08-15T13:02:01.654Z,365
2023-08-15T13:03:09.914Z,348
2023-08-15T13:04:18.994Z,360
2023-08-15T13:06:37.493Z,382
2023-08-15T13:07:46.561Z,382
2023-08-15T13:08:54.918Z,393
2023-08-15T13:10:02.820Z,399
2023-08-15T13:11:12.316Z,421
2023-08-15T13:12:21.384Z,405
2023-08-15T13:13:30.639Z,405
2023-08-15T13:14:39.518Z,438
2023-08-15T13:15:48.847Z,444
2023-08-15T13:16:57.864Z,455
2023-08-15T13:18:07.177Z,466
2023-08-15T13:19:16.217Z,444
2023-08-15T13:20:25.455Z,416
2023-08-15T13:21:33.581Z,461
2023-08-15T13:22:41.976Z,500
2023-08-15T13:23:50.938Z,556
2023-08-15T13:25:00.359Z,528
2023-08-15T13:26:09.423Z,601
2023-08-15T13:27:18.667Z,573
2023-08-15T13:28:27.663Z,652
2023-08-15T13:29:37.097Z,658
2023-08-15T13:30:46.139Z,691
2023-08-15T13:31:55.356Z,663
2023-08-15T13:33:04.677Z,523
2023-08-15T13:34:13.653Z,466
2023-08-15T13:35:22.863Z,405
2023-08-15T13:36:32.049Z,393
2023-08-15T13:37:40.409Z,405
2023-08-15T13:38:49.261Z,382
2023-08-15T13:39:58.676Z,354
2023-08-15T13:41:07.706Z,337
2023-08-15T13:42:17.001Z,337
2023-08-15T13:43:25.903Z,343
2023-08-15T13:44:35.088Z,354
2023-08-15T13:45:43.368Z,365
2023-08-15T13:46:52.586Z,596
2023-08-15T13:48:00.865Z,579
2023-08-15T13:49:09.833Z,973
2023-08-15T13:50:19.114Z,720
2023-08-15T13:51:28.330Z,534
2023-08-15T13:52:37.337Z,466
2023-08-15T13:53:46.689Z,528
2023-08-15T13:54:55.663Z,585
2023-08-15T13:56:04.875Z,928
2023-08-15T13:57:14.101Z,804
2023-08-15T13:58:23.212Z,528
2023-08-15T13:59:32.363Z,466
2023-08-15T14:00:41.615Z,495
2023-08-15T14:01:50.719Z,545
2023-08-15T14:02:59.196Z,635
2023-08-15T14:04:08.291Z,540
2023-08-15T14:05:17.244Z,590
2023-08-15T14:06:26.661Z,540
2023-08-15T14:07:35.588Z,877
2023-08-15T14:08:44.929Z,911
2023-08-15T14:09:54.183Z,736
2023-08-15T14:11:03.115Z,646
2023-08-15T14:12:12.283Z,883
2023-08-15T14:13:21.519Z,511
2023-08-15T14:14:30.617Z,410
2023-08-15T14:15:39.874Z,376
2023-08-15T14:16:48.980Z,382
2023-08-15T14:17:57.155Z,388
2023-08-15T14:19:06.341Z,348
2023-08-15T14:20:15.575Z,376
2023-08-15T14:21:24.825Z,337
2023-08-15T14:22:34.028Z,303
2023-08-15T14:23:43.241Z,337
2023-08-15T14:24:52.656Z,360
2023-08-15T14:26:01.802Z,438
2023-08-15T14:27:10.810Z,376
2023-08-15T14:28:20.069Z,393
2023-08-15T14:29:29.196Z,399
2023-08-15T14:30:38.374Z,483
2023-08-15T14:31:47.607Z,500
2023-08-15T14:32:56.733Z,562
2023-08-15T14:34:05.957Z,646
2023-08-15T14:35:14.045Z,472
2023-08-15T14:36:23.315Z,483
2023-08-15T14:37:32.431Z,517
2023-08-15T14:38:41.613Z,421
2023-08-15T14:39:50.844Z,427
2023-08-15T14:40:59.943Z,416
2023-08-15T14:42:08.895Z,556
2023-08-15T14:43:18.358Z,562
2023-08-15T14:44:27.538Z,596
2023-08-15T14:46:45.515Z,1186
2023-08-15T14:47:54.954Z,933
2023-08-15T14:50:13.257Z,630
2023-08-15T14:52:30.498Z,686
2023-08-15T14:53:38.824Z,472
2023-08-15T14:54:48.017Z,466
2023-08-15T14:55:56.271Z,466
2023-08-15T14:57:05.281Z,506
2023-08-15T14:58:14.295Z,489
2023-08-15T14:59:23.474Z,427
2023-08-15T15:00:32.834Z,388
2023-08-15T15:01:42.015Z,478
2023-08-15T15:02:51.301Z,506
2023-08-15T15:04:00.268Z,444
2023-08-15T15:05:08.796Z,410
2023-08-15T15:06:16.812Z,466
2023-08-15T15:07:26.061Z,489
2023-08-15T15:08:35.190Z,483
2023-08-15T15:09:44.388Z,579
2023-08-15T15:10:53.602Z,483
2023-08-15T15:12:02.743Z,354
2023-08-15T15:13:11.940Z,348
2023-08-15T15:14:21.148Z,337
2023-08-15T15:16:39.189Z,348
2023-08-15T15:17:48.480Z,348
2023-08-15T15:20:06.905Z,410
2023-08-15T15:21:16.193Z,371
2023-08-15T15:22:24.336Z,416
2023-08-15T15:23:33.553Z,798
2023-08-15T15:24:41.428Z,916
2023-08-15T15:25:50.789Z,1068
2023-08-15T15:26:59.998Z,843
2023-08-15T15:28:09.193Z,652
2023-08-15T15:29:18.450Z,725
2023-08-15T15:30:27.314Z,945
2023-08-15T15:31:36.462Z,1170
2023-08-15T15:32:45.768Z,1395
2023-08-15T15:33:53.871Z,1597
2023-08-15T15:35:02.178Z,1569
2023-08-15T15:36:11.325Z,1389
2023-08-15T15:37:20.396Z,1158
2023-08-15T15:38:29.702Z,928
2023-08-15T15:39:38.843Z,1411
2023-08-15T15:41:57.159Z,2148
2023-08-15T15:43:06.314Z,1417
2023-08-15T15:44:15.571Z,1704
2023-08-15T15:45:24.792Z,1996
2023-08-15T15:46:33.816Z,2165
2023-08-15T15:47:43.135Z,2255
2023-08-15T15:48:52.223Z,1890
2023-08-15T15:50:00.432Z,770
2023-08-15T15:51:09.531Z,2131
2023-08-15T15:52:18.540Z,506
2023-08-15T15:53:27.985Z,528
2023-08-15T15:54:37.158Z,1400
2023-08-15T15:55:46.232Z,646
2023-08-15T15:56:55.461Z,343
2023-08-15T15:58:03.746Z,331
2023-08-15T15:59:11.903Z,292
2023-08-15T16:00:20.037Z,236
2023-08-15T16:02:38.149Z,202
2023-08-15T16:03:47.322Z,196
2023-08-15T16:04:56.633Z,202
2023-08-15T16:06:05.882Z,466
2023-08-15T16:08:24.121Z,1732
2023-08-15T16:09:33.423Z,1850
2023-08-15T16:10:42.515Z,376
2023-08-15T16:11:51.663Z,331
2023-08-15T16:12:59.918Z,331
2023-08-15T16:14:08.124Z,354
2023-08-15T16:15:17.189Z,365
2023-08-15T16:16:26.256Z,298
2023-08-15T16:17:35.543Z,331
2023-08-15T16:18:44.707Z,292
2023-08-15T16:19:53.825Z,275
2023-08-15T16:21:03.157Z,264
2023-08-15T16:22:12.405Z,270
2023-08-15T16:23:21.562Z,275
2023-08-15T16:24:29.586Z,275
2023-08-15T16:25:37.904Z,247
2023-08-15T16:26:46.929Z,236
2023-08-15T16:27:56.104Z,360
2023-08-15T16:29:05.377Z,416
2023-08-15T16:30:14.519Z,258
2023-08-15T16:31:23.552Z,241
2023-08-15T16:32:32.954Z,821
2023-08-15T16:33:41.960Z,511
2023-08-15T16:34:51.325Z,376
2023-08-15T16:36:00.246Z,281
2023-08-15T16:37:09.518Z,270
2023-08-15T16:38:18.677Z,264
2023-08-15T16:39:27.757Z,275
2023-08-15T16:40:36.070Z,270
2023-08-15T16:41:45.126Z,275
2023-08-15T16:42:54.297Z,489
2023-08-15T16:44:03.574Z,433
2023-08-15T16:45:12.818Z,275
2023-08-15T16:46:21.948Z,270
2023-08-15T16:47:31.338Z,264
2023-08-15T16:48:40.163Z,264
2023-08-15T16:49:49.393Z,253
2023-08-15T16:50:58.716Z,219
2023-08-15T16:52:07.836Z,191
2023-08-15T16:53:16.891Z,163
2023-08-15T16:54:26.113Z,146
2023-08-15T16:55:34.423Z,140